ESST/TYF METAR and TAF weather

Enter ICAO airport designator
Station Type Date Time Source
ESST METAR 2024/06/14 18:20 UTC NOAA

ESST 141820Z 15005KT 9999 NSC 14/08 Q1011


Station Type Date Time Source
ESST Decoded METAR 2024/06/14 18:20 UTC NOAA

Station name not available
Jun 14, 2024 - 02:20 PM EDT / 2024.06.14 1820 UTC
Wind: from the SSE (150 degrees) at 6 MPH (5 KT):0
Visibility: greater than 7 mile(s):0
Temperature: 57 F (14 C)
Dew Point: 46 F (8 C)
Relative Humidity: 67%
Pressure (altimeter): 29.85 in. Hg (1011 hPa)
ob: ESST 141820Z 15005KT 9999 NSC 14/08 Q1011
cycle: 18

Station Type Date Time Source
ESST TAF UTC NOAA

Error!

Example: see airport list